Time;durP1;ratioP1;P1;durP2;ratioP2;P2;SDS_P1;SDS_P2;PMS_P1;PMS_P2;Temp;Humidity;BMP_temperature;BMP_pressure;BME280_temperature;BME280_humidity;BME280_pressure;Samples;Min_cycle;Max_cycle;Signal;HPM_P1;HPM_P2
2021/03/30 00:02:26;;;;;;;;;;;;;;;7.36;100.00;102173.59;5051036;28;20409;-66
2021/03/30 00:04:52;;;;;;;;;;;;;;;7.26;100.00;102167.72;5051181;28;19925;-67
2021/03/30 00:07:18;;;;;;;;;;;;;;;7.17;100.00;102162.72;5050951;28;20016;-66
2021/03/30 00:09:44;;;;;;;;;;;;;;;7.07;100.00;102169.47;5051125;28;19948;-67
2021/03/30 00:12:10;;;;;;;;;;;;;;;7.02;100.00;102167.84;5033428;28;20395;-66
2021/03/30 00:14:36;;;;;;;;;;;;;;;6.96;100.00;102170.84;5032982;28;19925;-67
2021/03/30 00:17:02;;;;;;;;;;;;;;;6.95;100.00;102174.47;5051021;28;20346;-67
2021/03/30 00:19:28;;;;;;;;;;;;;;;6.94;100.00;102182.63;5033065;28;19925;-66
2021/03/30 00:21:54;;;;;;;;;;;;;;;6.92;100.00;102180.00;5051154;28;19968;-66
2021/03/30 00:24:20;;;;;;;;;;;;;;;6.89;100.00;102174.72;5050980;28;19924;-67
2021/03/30 00:26:46;;;;;;;;;;;;;;;6.85;100.00;102178.50;5050707;28;19925;-67
2021/03/30 00:29:12;;;;;;;;;;;;;;;6.81;100.00;102182.28;5051002;28;20356;-66
2021/03/30 00:31:38;;;;;;;;;;;;;;;6.77;100.00;102188.75;5050798;28;19994;-66
2021/03/30 00:34:03;;;;;;;;;;;;;;;6.70;100.00;102185.41;5050949;28;19925;-66
2021/03/30 00:36:30;;;;;;;;;;;;;;;6.64;100.00;102177.56;5050427;28;19925;-67
2021/03/30 00:38:56;;;;;;;;;;;;;;;6.60;100.00;102179.53;5051658;28;20299;-67
2021/03/30 00:41:22;;;;;;;;;;;;;;;6.58;100.00;102183.25;5054558;28;19935;-66
2021/03/30 00:43:48;;;;;;;;;;;;;;;6.56;100.00;102180.63;5054321;28;19929;-66
2021/03/30 00:46:14;;;;;;;;;;;;;;;6.53;100.00;102175.31;5054245;28;19925;-67
2021/03/30 00:48:44;;;;;;;;;;;;;;;6.49;100.00;102182.69;5054123;28;19959;-66
2021/03/30 00:51:09;;;;;;;;;;;;;;;6.46;100.00;102180.09;5054782;28;19968;-67
2021/03/30 00:54:02;;;;;;;;;;;;;;;6.44;100.00;102181.09;5031057;28;19924;-66
2021/03/30 00:56:45;;;;;;;;;;;;;;;6.36;100.00;102173.34;5036807;28;19959;-66
2021/03/30 00:59:12;;;;;;;;;;;;;;;6.31;100.00;102181.59;5054610;28;19925;-67
2021/03/30 01:01:38;;;;;;;;;;;;;;;6.25;100.00;102181.81;5036744;28;20024;-67
2021/03/30 01:04:04;;;;;;;;;;;;;;;6.20;100.00;102181.16;5054869;28;19924;-66
2021/03/30 01:06:30;;;;;;;;;;;;;;;6.11;100.00;102185.09;5055087;28;19924;-66
2021/03/30 01:09:06;;;;;;;;;;;;;;;6.08;100.00;102181.63;5058095;28;20395;-66
2021/03/30 01:11:39;;;;;;;;;;;;;;;6.02;100.00;102185.44;5057936;28;19925;-67
2021/03/30 01:14:12;;;;;;;;;;;;;;;6.02;100.00;102191.69;5056929;28;19924;-67
2021/03/30 01:16:40;;;;;;;;;;;;;;;6.00;100.00;102198.13;5039243;28;19925;-67
2021/03/30 01:19:13;;;;;;;;;;;;;;;5.97;100.00;102196.38;5056767;28;19928;-67
2021/03/30 01:21:52;;;;;;;;;;;;;;;5.97;100.00;102190.09;5056583;28;20379;-67
2021/03/30 01:24:26;;;;;;;;;;;;;;;5.95;100.00;102202.78;5058372;28;20011;-68
2021/03/30 01:26:58;;;;;;;;;;;;;;;5.92;100.00;102194.78;5039068;28;19924;-67
2021/03/30 01:29:47;;;;;;;;;;;;;;;5.89;100.00;102197.59;5056099;28;19956;-67
2021/03/30 01:32:18;;;;;;;;;;;;;;;5.83;100.00;102198.72;5054485;28;19947;-67
2021/03/30 01:34:45;;;;;;;;;;;;;;;5.79;100.00;102195.25;5053340;28;19928;-67
2021/03/30 01:37:12;;;;;;;;;;;;;;;5.75;100.00;102190.91;5053274;28;19925;-66
2021/03/30 01:39:38;;;;;;;;;;;;;;;5.74;100.00;102202.63;5053365;28;20372;-66
2021/03/30 01:42:04;;;;;;;;;;;;;;;5.70;100.00;102193.78;5053324;28;19972;-66
2021/03/30 01:44:30;;;;;;;;;;;;;;;5.70;100.00;102191.09;5053249;28;19925;-66
2021/03/30 01:46:59;;;;;;;;;;;;;;;5.69;100.00;102193.81;5053118;28;19959;-67
2021/03/30 01:49:26;;;;;;;;;;;;;;;5.71;100.00;102189.28;5053160;28;19936;-67
2021/03/30 01:51:53;;;;;;;;;;;;;;;5.72;100.00;102190.13;5052393;28;19925;-67
2021/03/30 01:54:19;;;;;;;;;;;;;;;5.74;100.00;102188.28;5035237;28;19931;-66
2021/03/30 01:56:45;;;;;;;;;;;;;;;5.80;100.00;102191.63;5052907;28;19963;-66
2021/03/30 01:59:13;;;;;;;;;;;;;;;5.84;100.00;102182.47;5053014;28;19931;-66
2021/03/30 02:01:40;;;;;;;;;;;;;;;5.83;100.00;102183.41;5052986;28;19925;-66
2021/03/30 02:04:07;;;;;;;;;;;;;;;5.79;100.00;102180.91;5052923;28;19929;-66
2021/03/30 02:06:34;;;;;;;;;;;;;;;5.75;100.00;102188.22;5052332;28;19924;-66
2021/03/30 02:09:01;;;;;;;;;;;;;;;5.64;100.00;102182.38;5035014;28;19987;-67
2021/03/30 02:11:30;;;;;;;;;;;;;;;5.49;100.00;102183.78;5052505;28;19932;-66
2021/03/30 02:13:57;;;;;;;;;;;;;;;5.42;100.00;102191.22;5052728;28;19937;-67
2021/03/30 02:16:25;;;;;;;;;;;;;;;5.37;100.00;102185.09;5052071;28;19956;-66
2021/03/30 02:18:55;;;;;;;;;;;;;;;5.34;100.00;102188.81;5034878;28;19932;-66
2021/03/30 02:21:25;;;;;;;;;;;;;;;5.32;100.00;102187.97;5052578;28;19931;-66
2021/03/30 02:23:51;;;;;;;;;;;;;;;5.26;100.00;102195.41;5052739;28;19925;-66
2021/03/30 02:26:17;;;;;;;;;;;;;;;5.24;100.00;102189.19;5034567;28;19932;-66
2021/03/30 02:28:45;;;;;;;;;;;;;;;5.24;100.00;102194.56;5052267;28;19925;-66
2021/03/30 02:31:13;;;;;;;;;;;;;;;5.22;100.00;102196.44;5052378;28;19960;-66
2021/03/30 02:33:40;;;;;;;;;;;;;;;5.15;100.00;102204.72;5052152;28;19932;-66
2021/03/30 02:36:07;;;;;;;;;;;;;;;5.11;100.00;102204.91;5052062;28;19929;-66
2021/03/30 02:38:34;;;;;;;;;;;;;;;5.10;100.00;102209.38;5052147;28;19932;-66
2021/03/30 02:41:00;;;;;;;;;;;;;;;5.06;100.00;102206.88;5052150;28;19986;-67
2021/03/30 02:43:27;;;;;;;;;;;;;;;4.93;100.00;102207.31;5051798;28;19971;-66
2021/03/30 02:45:54;;;;;;;;;;;;;;;4.84;100.00;102208.47;5033770;28;20023;-67
2021/03/30 02:48:20;;;;;;;;;;;;;;;4.78;100.00;102218.56;5034221;28;19925;-66
2021/03/30 02:50:47;;;;;;;;;;;;;;;4.69;100.00;102215.25;5051926;28;19931;-66
2021/03/30 02:53:14;;;;;;;;;;;;;;;4.64;100.00;102217.22;5051888;28;19925;-66
2021/03/30 02:55:42;;;;;;;;;;;;;;;4.61;100.00;102221.78;5051566;28;19928;-66
2021/03/30 02:58:08;;;;;;;;;;;;;;;4.59;100.00;102224.53;5051842;28;19940;-66
2021/03/30 03:00:34;;;;;;;;;;;;;;;4.61;100.00;102219.09;5051786;28;20307;-66
2021/03/30 03:03:03;;;;;;;;;;;;;;;4.64;100.00;102216.34;5051654;28;19986;-66
2021/03/30 03:05:28;;;;;;;;;;;;;;;4.64;100.00;102225.28;5051279;28;19932;-66
2021/03/30 03:07:55;;;;;;;;;;;;;;;4.62;100.00;102227.16;5051708;28;19924;-66
2021/03/30 03:10:21;;;;;;;;;;;;;;;4.60;100.00;102222.75;5051549;28;19925;-66
2021/03/30 03:12:49;;;;;;;;;;;;;;;4.65;100.00;102226.16;5051653;28;19978;-67
2021/03/30 03:15:16;;;;;;;;;;;;;;;4.63;100.00;102228.03;5051147;28;19990;-67
2021/03/30 03:17:42;;;;;;;;;;;;;;;4.58;100.00;102229.97;5051560;28;20005;-66
2021/03/30 03:20:10;;;;;;;;;;;;;;;4.53;100.00;102227.44;5051495;28;19932;-66
2021/03/30 03:22:36;;;;;;;;;;;;;;;4.47;100.00;102224.94;5051527;28;20019;-66
2021/03/30 03:25:04;;;;;;;;;;;;;;;4.41;100.00;102220.66;5033131;28;21430;-66
2021/03/30 03:27:30;;;;;;;;;;;;;;;4.37;100.00;102229.75;5051198;28;19924;-66
2021/03/30 03:29:57;;;;;;;;;;;;;;;4.33;100.00;102223.56;5033410;28;19935;-66
2021/03/30 03:32:23;;;;;;;;;;;;;;;4.30;100.00;102229.06;5051242;28;19925;-66
2021/03/30 03:34:49;;;;;;;;;;;;;;;4.24;100.00;102226.53;5051183;28;19925;-66
2021/03/30 03:37:15;;;;;;;;;;;;;;;4.19;100.00;102231.16;5051403;28;19925;-66
2021/03/30 03:39:41;;;;;;;;;;;;;;;4.19;100.00;102225.78;5051325;28;19971;-66
2021/03/30 03:42:07;;;;;;;;;;;;;;;4.17;100.00;102224.97;5051584;28;20009;-66
2021/03/30 03:44:33;;;;;;;;;;;;;;;4.16;100.00;102226.75;5051164;28;19960;-66
2021/03/30 03:47:00;;;;;;;;;;;;;;;4.15;100.00;102225.00;5033390;28;20311;-66
2021/03/30 03:49:27;;;;;;;;;;;;;;;4.13;100.00;102232.25;5051341;28;19990;-66
2021/03/30 03:51:57;;;;;;;;;;;;;;;4.11;100.00;102238.59;5033289;28;19963;-66
2021/03/30 03:54:23;;;;;;;;;;;;;;;4.12;100.00;102230.47;5051180;28;19925;-66
2021/03/30 03:56:50;;;;;;;;;;;;;;;4.11;100.00;102236.78;5032907;28;19983;-66
2021/03/30 03:59:18;;;;;;;;;;;;;;;4.05;100.00;102234.28;5051183;28;19972;-66
2021/03/30 04:01:46;;;;;;;;;;;;;;;4.00;100.00;102233.53;5051095;28;19975;-66
2021/03/30 04:04:19;;;;;;;;;;;;;;;3.99;100.00;102234.47;5033206;28;19978;-66
2021/03/30 04:06:49;;;;;;;;;;;;;;;3.96;100.00;102237.25;5051011;28;20378;-66
2021/03/30 04:09:16;;;;;;;;;;;;;;;4.00;100.00;102233.53;5051093;28;19924;-66
2021/03/30 04:11:44;;;;;;;;;;;;;;;4.09;100.00;102235.97;5051135;28;20016;-66
2021/03/30 04:14:09;;;;;;;;;;;;;;;4.08;100.00;102239.56;5052143;28;19951;-67
2021/03/30 04:16:36;;;;;;;;;;;;;;;4.01;100.00;102238.00;5054524;28;20363;-66
2021/03/30 04:19:01;;;;;;;;;;;;;;;3.95;100.00;102247.09;5054853;28;20027;-66
2021/03/30 04:21:30;;;;;;;;;;;;;;;3.91;100.00;102241.88;5054847;28;19948;-67
2021/03/30 04:23:57;;;;;;;;;;;;;;;3.90;100.00;102238.31;5054197;28;20349;-66
2021/03/30 04:26:23;;;;;;;;;;;;;;;3.89;100.00;102241.00;5041429;28;19926;-66
2021/03/30 04:28:49;;;;;;;;;;;;;;;3.92;100.00;102240.94;5034666;28;19952;-66
2021/03/30 04:31:15;;;;;;;;;;;;;;;3.90;100.00;102245.47;5043202;28;19925;-66
2021/03/30 04:33:40;;;;;;;;;;;;;;;3.89;100.00;102238.34;5050592;28;19935;-66
2021/03/30 04:36:08;;;;;;;;;;;;;;;3.82;100.00;102243.00;5045200;28;19924;-66
2021/03/30 04:38:35;;;;;;;;;;;;;;;3.78;100.00;102250.28;5053461;28;19937;-66
2021/03/30 04:41:01;;;;;;;;;;;;;;;3.80;100.00;102245.72;5048901;28;19929;-66
2021/03/30 04:43:27;;;;;;;;;;;;;;;3.77;100.00;102255.69;5049397;28;20415;-65
2021/03/30 04:45:52;;;;;;;;;;;;;;;3.74;100.00;102251.31;5053927;28;19931;-65
2021/03/30 04:48:19;;;;;;;;;;;;;;;3.72;100.00;102254.97;5054327;28;19925;-65
2021/03/30 04:50:45;;;;;;;;;;;;;;;3.66;100.00;102261.34;5054123;28;20358;-65
2021/03/30 04:53:12;;;;;;;;;;;;;;;3.60;100.00;102259.72;5054163;28;19924;-65
2021/03/30 04:55:39;;;;;;;;;;;;;;;3.57;100.00;102261.59;5053372;28;19931;-66
2021/03/30 04:58:04;;;;;;;;;;;;;;;3.54;100.00;102265.28;5054004;28;19929;-65
2021/03/30 05:00:30;;;;;;;;;;;;;;;3.57;100.00;102253.56;5036272;28;19982;-65
2021/03/30 05:02:56;;;;;;;;;;;;;;;3.63;100.00;102265.00;5053926;28;20324;-65
2021/03/30 05:05:22;;;;;;;;;;;;;;;3.74;100.00;102263.84;5053731;28;19975;-65
2021/03/30 05:07:48;;;;;;;;;;;;;;;3.79;100.00;102260.09;5053984;28;20319;-65
2021/03/30 05:10:14;;;;;;;;;;;;;;;3.84;100.00;102260.84;5054049;28;19978;-66
2021/03/30 05:12:41;;;;;;;;;;;;;;;3.82;100.00;102251.97;5036002;28;19952;-65
2021/03/30 05:15:08;;;;;;;;;;;;;;;3.81;100.00;102258.25;5053713;28;19931;-65
2021/03/30 05:17:34;;;;;;;;;;;;;;;3.88;100.00;102253.59;5036043;28;19924;-65
2021/03/30 05:19:59;;;;;;;;;;;;;;;3.98;100.00;102259.56;5053571;28;19935;-65
2021/03/30 05:22:25;;;;;;;;;;;;;;;4.08;100.00;102258.38;5053796;28;19929;-65
2021/03/30 05:24:51;;;;;;;;;;;;;;;4.20;100.00;102262.50;5052934;28;19952;-65
2021/03/30 05:27:17;;;;;;;;;;;;;;;4.35;100.00;102258.47;5046092;28;20011;-65
2021/03/30 05:29:44;;;;;;;;;;;;;;;4.61;100.00;102272.91;5053619;28;19991;-66
2021/03/30 05:32:10;;;;;;;;;;;;;;;4.92;100.00;102277.28;5036656;28;19925;-66
2021/03/30 05:34:36;;;;;;;;;;;;;;;5.26;100.00;102268.97;5033326;28;20414;-66
2021/03/30 05:37:02;;;;;;;;;;;;;;;5.68;100.00;102268.41;5034268;28;19925;-66
2021/03/30 05:39:28;;;;;;;;;;;;;;;6.30;100.00;102273.34;5041146;28;19924;-66
2021/03/30 05:41:54;;;;;;;;;;;;;;;6.89;100.00;102268.34;5048102;28;19960;-66
2021/03/30 05:44:19;;;;;;;;;;;;;;;7.54;100.00;102261.94;5039117;28;19955;-64
2021/03/30 05:46:54;;;;;;;;;;;;;;;8.13;100.00;102261.13;5052577;28;19928;-65
2021/03/30 05:49:20;;;;;;;;;;;;;;;8.76;100.00;102268.97;5052170;28;20033;-66
2021/03/30 05:51:46;;;;;;;;;;;;;;;9.27;100.00;102266.44;5053196;28;19924;-65
2021/03/30 05:54:12;;;;;;;;;;;;;;;9.82;100.00;102276.25;5051782;28;20020;-65
2021/03/30 05:56:38;;;;;;;;;;;;;;;10.32;100.00;102271.72;5051321;28;19929;-65
2021/03/30 05:59:05;;;;;;;;;;;;;;;10.74;100.00;102266.69;5053020;28;19924;-65
2021/03/30 06:01:31;;;;;;;;;;;;;;;10.88;100.00;102274.06;5033062;28;19925;-64
2021/03/30 06:04:01;;;;;;;;;;;;;;;11.01;100.00;102266.94;5032900;28;19925;-66
2021/03/30 06:06:27;;;;;;;;;;;;;;;11.46;100.00;102269.69;5044462;28;20284;-65
2021/03/30 06:08:52;;;;;;;;;;;;;;;12.00;100.00;102268.28;5032811;28;19951;-65
2021/03/30 06:11:18;;;;;;;;;;;;;;;12.43;100.00;102264.69;5042320;28;19964;-65
2021/03/30 06:13:45;;;;;;;;;;;;;;;12.87;100.00;102269.91;5040040;28;19983;-65
2021/03/30 06:16:22;;;;;;;;;;;;;;;13.30;100.00;102265.28;5044310;28;19952;-65
2021/03/30 06:18:47;;;;;;;;;;;;;;;13.62;100.00;102273.13;5052559;28;19928;-64
2021/03/30 06:21:15;;;;;;;;;;;;;;;13.81;100.00;102276.28;5041558;28;20565;-65
2021/03/30 06:23:41;;;;;;;;;;;;;;;14.03;100.00;102278.38;5052496;28;19928;-63
2021/03/30 06:26:15;;;;;;;;;;;;;;;14.24;100.00;102277.81;5039263;28;20410;-64
2021/03/30 06:28:41;;;;;;;;;;;;;;;14.72;100.00;102282.53;5033421;28;19925;-64
2021/03/30 06:31:09;;;;;;;;;;;;;;;14.82;92.87;102283.63;5042899;28;19925;-64
2021/03/30 06:33:43;;;;;;;;;;;;;;;14.99;89.99;102286.94;5049970;28;19936;-64
2021/03/30 06:36:14;;;;;;;;;;;;;;;14.98;86.25;102280.59;5051584;28;19932;-64
2021/03/30 06:38:50;;;;;;;;;;;;;;;15.18;82.76;102279.09;5049667;28;20334;-64
2021/03/30 06:41:30;;;;;;;;;;;;;;;15.35;79.67;102279.66;5048841;28;19964;-65
2021/03/30 06:46:44;;;;;;;;;;;;;;;15.72;72.89;102285.00;5049703;28;19967;-66
2021/03/30 06:49:15;;;;;;;;;;;;;;;15.73;70.39;102284.88;5049381;28;20387;-65
2021/03/30 06:51:41;;;;;;;;;;;;;;;15.79;71.29;102280.78;5049784;28;20372;-65
2021/03/30 06:54:08;;;;;;;;;;;;;;;15.75;70.28;102282.00;5047256;28;19931;-65
2021/03/30 06:56:51;;;;;;;;;;;;;;;16.19;69.20;102287.72;5050933;28;19978;-65
2021/03/30 06:59:17;;;;;;;;;;;;;;;16.02;68.43;102289.06;5025823;28;20026;-65
2021/03/30 07:01:45;;;;;;;;;;;;;;;16.48;64.84;102285.34;5050788;28;19964;-65
2021/03/30 07:04:11;;;;;;;;;;;;;;;16.95;60.73;102285.16;5056194;28;20398;-65
2021/03/30 07:06:37;;;;;;;;;;;;;;;17.07;59.43;102288.75;5047089;28;19929;-65
2021/03/30 07:09:03;;;;;;;;;;;;;;;17.45;56.99;102284.63;5032531;28;19933;-66
2021/03/30 07:11:32;;;;;;;;;;;;;;;17.11;55.56;102287.50;5041541;28;19979;-66
2021/03/30 07:13:58;;;;;;;;;;;;;;;17.28;56.49;102291.56;5050395;28;20026;-66
2021/03/30 07:16:27;;;;;;;;;;;;;;;17.33;55.75;102288.41;5047763;28;20402;-66
2021/03/30 07:18:55;;;;;;;;;;;;;;;17.50;56.64;102286.97;5047153;28;19925;-66
2021/03/30 07:21:22;;;;;;;;;;;;;;;17.11;52.84;102283.88;5033670;28;19929;-65
2021/03/30 07:23:53;;;;;;;;;;;;;;;17.10;53.46;102283.00;5030746;28;19929;-65
2021/03/30 07:26:20;;;;;;;;;;;;;;;17.22;53.99;102284.72;5046423;28;20372;-66
2021/03/30 07:28:49;;;;;;;;;;;;;;;17.14;53.28;102284.47;5031537;28;20245;-65
2021/03/30 07:31:17;;;;;;;;;;;;;;;17.44;53.43;102285.63;5044509;28;19925;-65
2021/03/30 07:33:46;;;;;;;;;;;;;;;17.22;52.04;102289.31;5031534;28;19932;-66
2021/03/30 07:36:14;;;;;;;;;;;;;;;16.81;53.82;102296.38;5033960;28;19933;-65
2021/03/30 07:38:45;;;;;;;;;;;;;;;16.89;54.02;102296.63;5041715;28;19928;-65
2021/03/30 07:41:12;;;;;;;;;;;;;;;17.33;54.51;102299.38;5048283;28;19975;-65
2021/03/30 07:43:38;;;;;;;;;;;;;;;17.77;52.90;102291.06;5050377;28;20446;-65
2021/03/30 07:46:05;;;;;;;;;;;;;;;17.93;51.31;102290.63;5032218;28;19959;-65
2021/03/30 07:48:32;;;;;;;;;;;;;;;18.43;50.50;102301.72;5041403;28;20299;-65
2021/03/30 07:51:03;;;;;;;;;;;;;;;18.35;49.30;102296.06;5035048;28;19933;-65
2021/03/30 07:53:42;;;;;;;;;;;;;;;18.64;49.68;102298.03;5052010;28;19963;-66
2021/03/30 07:56:09;;;;;;;;;;;;;;;18.83;49.00;102295.34;5054689;28;20039;-66
2021/03/30 07:58:39;;;;;;;;;;;;;;;18.97;48.11;102294.09;5055104;28;19932;-65
2021/03/30 08:01:06;;;;;;;;;;;;;;;19.05;48.00;102297.03;5055029;28;19928;-65
2021/03/30 08:03:34;;;;;;;;;;;;;;;19.03;49.43;102301.78;5055079;28;19925;-65
2021/03/30 08:06:03;;;;;;;;;;;;;;;19.10;48.85;102288.31;5034896;28;19925;-66
2021/03/30 08:08:29;;;;;;;;;;;;;;;19.17;49.10;102296.88;5045498;28;20340;-65
2021/03/30 08:10:55;;;;;;;;;;;;;;;19.34;49.25;102300.81;5048530;28;19935;-66
2021/03/30 08:13:26;;;;;;;;;;;;;;;19.22;48.67;102298.19;5054861;28;19924;-66
2021/03/30 08:15:52;;;;;;;;;;;;;;;19.59;47.92;102299.34;5052891;28;19929;-66
2021/03/30 08:18:20;;;;;;;;;;;;;;;19.84;46.74;102289.66;5045741;28;20185;-65
2021/03/30 08:20:53;;;;;;;;;;;;;;;19.40;46.89;102300.22;5037859;28;20384;-65
2021/03/30 08:23:20;;;;;;;;;;;;;;;19.68;47.90;102301.25;5055140;28;19925;-65
2021/03/30 08:25:47;;;;;;;;;;;;;;;19.65;47.40;102303.41;5047260;28;19975;-65
2021/03/30 08:28:29;;;;;;;;;;;;;;;19.66;47.31;102306.00;5054615;28;20379;-65
2021/03/30 08:30:56;;;;;;;;;;;;;;;19.77;47.11;102301.38;5034214;28;19929;-65
2021/03/30 08:33:24;;;;;;;;;;;;;;;19.75;47.05;102309.78;5045704;28;19964;-65
2021/03/30 08:35:51;;;;;;;;;;;;;;;19.94;45.84;102308.03;5037836;28;19971;-65
2021/03/30 08:38:40;;;;;;;;;;;;;;;20.82;46.73;102308.59;5041311;28;20339;-65
2021/03/30 08:41:06;;;;;;;;;;;;;;;20.92;44.83;102308.53;5035056;28;20281;-65
2021/03/30 08:43:31;;;;;;;;;;;;;;;20.71;45.37;102303.25;5049569;28;20054;-64
2021/03/30 08:46:01;;;;;;;;;;;;;;;20.77;45.83;102302.66;5053817;28;19925;-65
2021/03/30 08:48:32;;;;;;;;;;;;;;;21.42;45.39;102309.91;5035692;28;19924;-65
2021/03/30 08:50:59;;;;;;;;;;;;;;;21.46;45.14;102304.94;5054028;28;20426;-66
2021/03/30 08:53:29;;;;;;;;;;;;;;;21.34;43.12;102309.81;5040392;28;19925;-65
2021/03/30 08:55:55;;;;;;;;;;;;;;;21.43;44.78;102317.16;5052575;28;19953;-64
2021/03/30 08:58:24;;;;;;;;;;;;;;;21.56;46.68;102309.38;5044726;28;19925;-64
2021/03/30 09:00:50;;;;;;;;;;;;;;;22.17;43.44;102317.78;5033776;28;19925;-64
2021/03/30 09:03:24;;;;;;;;;;;;;;;22.17;43.81;102320.56;5033923;28;19976;-64
2021/03/30 09:05:50;;;;;;;;;;;;;;;22.39;43.92;102324.69;5051963;28;19951;-65
2021/03/30 09:08:33;;;;;;;;;;;;;;;22.17;43.64;102323.31;5050200;28;19929;-64
2021/03/30 09:11:13;;;;;;;;;;;;;;;22.50;42.93;102326.31;5053499;28;20316;-65
2021/03/30 09:13:39;;;;;;;;;;;;;;;22.78;43.05;102315.00;5053806;28;19960;-64
2021/03/30 09:16:09;;;;;;;;;;;;;;;22.97;41.45;102319.41;5051950;28;20028;-64
2021/03/30 09:18:36;;;;;;;;;;;;;;;22.77;41.89;102316.06;5016000;28;19952;-64
2021/03/30 09:21:10;;;;;;;;;;;;;;;22.42;41.93;102312.41;5033824;28;19979;-65
2021/03/30 09:23:37;;;;;;;;;;;;;;;22.18;43.39;102315.88;5033753;28;19929;-66
2021/03/30 09:26:09;;;;;;;;;;;;;;;22.70;42.26;102313.09;5051165;28;20099;-65
2021/03/30 09:28:35;;;;;;;;;;;;;;;22.58;42.61;102317.16;5051303;28;19925;-65
2021/03/30 09:31:01;;;;;;;;;;;;;;;23.16;41.48;102318.28;5043281;28;19933;-65
2021/03/30 09:33:27;;;;;;;;;;;;;;;23.28;40.53;102315.19;5053307;28;19932;-65
2021/03/30 09:35:53;;;;;;;;;;;;;;;23.15;41.05;102312.91;5038564;28;19925;-65
2021/03/30 09:38:20;;;;;;;;;;;;;;;23.78;40.25;102310.53;5034481;28;19929;-65
2021/03/30 09:40:46;;;;;;;;;;;;;;;23.21;40.44;102313.09;5033274;28;20015;-64
2021/03/30 09:43:13;;;;;;;;;;;;;;;23.80;41.04;102316.75;5044360;28;20027;-65
2021/03/30 09:45:39;;;;;;;;;;;;;;;24.10;38.71;102300.47;5052719;28;19929;-64
2021/03/30 09:48:07;;;;;;;;;;;;;;;23.54;39.19;102312.25;5041036;28;20395;-64
2021/03/30 09:50:33;;;;;;;;;;;;;;;23.45;39.33;102308.63;5044397;28;19925;-66
2021/03/30 09:53:03;;;;;;;;;;;;;;;22.92;40.76;102312.66;5051661;28;19925;-66
2021/03/30 09:55:31;;;;;;;;;;;;;;;23.27;40.84;102310.69;5037617;28;19936;-65
2021/03/30 09:58:01;;;;;;;;;;;;;;;22.80;41.41;102315.72;5052621;28;19928;-66
2021/03/30 10:00:27;;;;;;;;;;;;;;;22.32;42.05;102308.91;5052089;28;19936;-65
2021/03/30 10:02:53;;;;;;;;;;;;;;;22.44;42.62;102309.50;5052830;28;19929;-65
2021/03/30 10:05:19;;;;;;;;;;;;;;;22.74;43.19;102306.19;5050290;28;19936;-65
2021/03/30 10:07:45;;;;;;;;;;;;;;;22.76;41.57;102308.78;5052673;28;20413;-65
2021/03/30 10:10:12;;;;;;;;;;;;;;;23.61;41.65;102298.56;5036732;28;19929;-65
2021/03/30 10:12:48;;;;;;;;;;;;;;;23.68;41.36;102296.84;5031643;28;19948;-65
2021/03/30 10:15:14;;;;;;;;;;;;;;;24.05;39.76;102293.53;5040379;28;20029;-66
2021/03/30 10:17:40;;;;;;;;;;;;;;;24.19;39.77;102291.94;5051236;28;19924;-66
2021/03/30 10:20:07;;;;;;;;;;;;;;;24.78;39.29;102296.25;5051489;28;19933;-65
2021/03/30 10:22:34;;;;;;;;;;;;;;;25.24;37.93;102285.22;5033890;28;19925;-65
2021/03/30 10:25:06;;;;;;;;;;;;;;;25.40;37.51;102287.03;5048130;28;19925;-66
2021/03/30 10:27:34;;;;;;;;;;;;;;;23.83;38.43;102295.09;5034239;28;20019;-66
2021/03/30 10:30:01;;;;;;;;;;;;;;;24.33;39.50;102292.25;5027653;28;19983;-65
2021/03/30 10:32:31;;;;;;;;;;;;;;;24.21;39.28;102289.88;5030701;28;19939;-65
2021/03/30 10:34:57;;;;;;;;;;;;;;;23.68;39.90;102286.63;5027895;28;19967;-65
2021/03/30 10:37:23;;;;;;;;;;;;;;;23.48;41.29;102290.78;5032923;28;19925;-65
2021/03/30 10:39:49;;;;;;;;;;;;;;;23.04;41.38;102284.47;5032281;28;20014;-65
2021/03/30 10:42:16;;;;;;;;;;;;;;;23.43;42.67;102284.91;5017271;28;19978;-65
2021/03/30 10:44:43;;;;;;;;;;;;;;;23.38;41.45;102279.84;5051900;28;19935;-65
2021/03/30 10:47:14;;;;;;;;;;;;;;;23.69;41.13;102276.38;5048566;28;20412;-65
2021/03/30 10:49:40;;;;;;;;;;;;;;;23.66;41.30;102271.19;5046785;28;19972;-65
2021/03/30 10:52:09;;;;;;;;;;;;;;;23.23;40.82;102266.69;5050355;28;19948;-65
2021/03/30 10:54:36;;;;;;;;;;;;;;;23.11;41.56;102264.41;5051174;28;19979;-65
2021/03/30 10:57:05;;;;;;;;;;;;;;;23.33;42.44;102273.97;5049865;28;19925;-65
2021/03/30 10:59:31;;;;;;;;;;;;;;;23.63;42.10;102261.31;5039627;28;19936;-65
2021/03/30 11:01:57;;;;;;;;;;;;;;;24.43;41.53;102262.38;5051397;28;19964;-65
2021/03/30 11:04:23;;;;;;;;;;;;;;;24.27;39.62;102259.69;5050017;28;20451;-65
2021/03/30 11:06:49;;;;;;;;;;;;;;;23.90;40.19;102251.81;5033708;28;19950;-66
2021/03/30 11:09:15;;;;;;;;;;;;;;;23.83;41.16;102249.88;5051150;28;19990;-65
2021/03/30 11:11:41;;;;;;;;;;;;;;;24.51;40.05;102248.47;5049818;28;19978;-65
2021/03/30 11:14:07;;;;;;;;;;;;;;;24.76;39.15;102250.28;5049791;28;19956;-65
2021/03/30 11:16:33;;;;;;;;;;;;;;;24.66;39.13;102250.53;5032294;28;19925;-65
2021/03/30 11:18:59;;;;;;;;;;;;;;;24.65;39.19;102246.00;5050078;28;20276;-65
2021/03/30 11:21:26;;;;;;;;;;;;;;;24.74;39.03;102236.59;5049601;28;19925;-66
2021/03/30 11:23:58;;;;;;;;;;;;;;;24.19;39.98;102242.00;5049578;28;20008;-66
2021/03/30 11:26:24;;;;;;;;;;;;;;;23.98;41.88;102236.19;5049236;28;19925;-65
2021/03/30 11:28:50;;;;;;;;;;;;;;;24.45;40.50;102235.31;5050906;28;19994;-65
2021/03/30 11:31:27;;;;;;;;;;;;;;;24.10;39.01;102234.75;5032685;28;19925;-64
2021/03/30 11:33:59;;;;;;;;;;;;;;;24.20;40.40;102237.34;5051486;28;19960;-63
2021/03/30 11:36:26;;;;;;;;;;;;;;;24.32;40.34;102235.03;5043124;28;20094;-64
2021/03/30 11:38:52;;;;;;;;;;;;;;;24.26;40.16;102238.53;5031475;28;20311;-64
2021/03/30 11:41:18;;;;;;;;;;;;;;;23.84;40.03;102241.38;5036186;28;19932;-65
2021/03/30 11:43:44;;;;;;;;;;;;;;;23.64;40.98;102234.50;5032382;28;19969;-64
2021/03/30 11:46:09;;;;;;;;;;;;;;;24.39;39.93;102227.72;5029290;28;20074;-64
2021/03/30 11:48:35;;;;;;;;;;;;;;;24.63;38.77;102226.75;5031087;28;19972;-63
2021/03/30 11:51:01;;;;;;;;;;;;;;;24.43;39.47;102223.53;5031485;28;19925;-65
2021/03/30 11:53:28;;;;;;;;;;;;;;;24.47;39.39;102222.13;5034129;28;20311;-64
2021/03/30 11:55:54;;;;;;;;;;;;;;;24.75;39.02;102221.66;5050786;28;19925;-65
2021/03/30 11:58:20;;;;;;;;;;;;;;;24.90;38.30;102214.25;5047353;28;19932;-65
2021/03/30 12:00:46;;;;;;;;;;;;;;;24.62;39.26;102210.25;5041512;28;19973;-65
2021/03/30 12:03:12;;;;;;;;;;;;;;;24.55;38.47;102208.22;5050788;28;20028;-65
2021/03/30 12:05:37;;;;;;;;;;;;;;;24.23;39.44;102215.63;5048663;28;19928;-64
2021/03/30 12:08:04;;;;;;;;;;;;;;;24.15;39.72;102212.06;5049964;28;19932;-64
2021/03/30 12:10:31;;;;;;;;;;;;;;;24.11;39.87;102205.13;5049784;28;20679;-65
2021/03/30 12:12:57;;;;;;;;;;;;;;;24.28;40.13;102201.25;5049277;28;20002;-64
2021/03/30 12:15:22;;;;;;;;;;;;;;;24.62;39.85;102199.16;5047206;28;19931;-66
2021/03/30 12:17:48;;;;;;;;;;;;;;;24.67;38.92;102196.75;5046996;28;19929;-66
2021/03/30 12:20:16;;;;;;;;;;;;;;;25.21;39.28;102193.91;5031095;28;19970;-65
2021/03/30 12:22:42;;;;;;;;;;;;;;;25.29;38.74;102192.97;5049750;28;19928;-65
2021/03/30 12:25:08;;;;;;;;;;;;;;;25.22;38.64;102189.22;5048381;28;20078;-66
2021/03/30 12:27:35;;;;;;;;;;;;;;;25.26;38.94;102195.25;5049440;28;19933;-66
2021/03/30 12:30:01;;;;;;;;;;;;;;;25.60;38.41;102183.66;5049237;28;20399;-66
2021/03/30 12:32:27;;;;;;;;;;;;;;;25.52;37.62;102169.84;5049234;28;20288;-65
2021/03/30 12:34:53;;;;;;;;;;;;;;;25.70;37.64;102194.53;5049552;28;19932;-66
2021/03/30 12:37:19;;;;;;;;;;;;;;;26.29;37.79;102184.47;5052280;28;19932;-64
2021/03/30 12:39:45;;;;;;;;;;;;;;;26.78;35.68;102172.66;5052546;28;19956;-64
2021/03/30 12:42:11;;;;;;;;;;;;;;;27.16;35.97;102169.59;5052860;28;19925;-64